Terminal Aerodrome Forecast
Issued by NWS Boise, ID

Home | Current Version | Previous Version | Text Only | Print | Product List | Glossary On
Versions: 1 2 3 4 5 6 7 8 9 10 11 12 13 14 15 16 17 18 19 20 21 22 23 24 25 26 27 28 29 30 31 32
000
FTUS45 KBOI 191734
TAFBNO
TAF
KBNO 191734Z 1918/2018 18012KT 4SM -SHSN BKN035
      TEMPO 1918/1921 20015G28KT 1/2SM SN OVC007
     FM192300 21011KT P6SM OVC060
     FM201000 12006KT P6SM -SNRA OVC050=

USA.gov is the U.S. government's official web portal to all federal, state and local government web resources and services.